Time,TemperatureF,DewpointF,PressureIn,WindDirection,WindDirectionDegrees,WindSpeedMPH,WindSpeedGustMPH,Humidity,HourlyPrecipIn,Conditions,Clouds,dailyrainin,SoftwareType,DateUTC
2016-09-26 00:03:00,54.1,50.3,30.04,ESE,112,0.0,-999.0,87,-99.99,,,0.00,Acu-Link.com,2016-09-26 04:03:00,
2016-09-26 00:18:00,54.0,50.2,30.04,ESE,112,0.0,-999.0,87,-99.99,,,0.00,Acu-Link.com,2016-09-26 04:18:00,
2016-09-26 00:33:00,53.8,50.0,30.04,ESE,112,0.0,-999.0,87,-99.99,,,0.00,Acu-Link.com,2016-09-26 04:33:00,
2016-09-26 00:48:00,53.4,49.6,30.04,ESE,112,0.0,-999.0,87,-99.99,,,0.00,Acu-Link.com,2016-09-26 04:48:00,
2016-09-26 01:04:00,53.2,49.4,30.04,ESE,112,0.0,-999.0,87,-99.99,,,0.00,Acu-Link.com,2016-09-26 05:04:00,
2016-09-26 01:19:00,53.2,49.1,30.03,ESE,112,0.0,-999.0,86,-99.99,,,0.00,Acu-Link.com,2016-09-26 05:19:00,
2016-09-26 01:34:00,53.1,49.0,30.03,ESE,112,0.0,-999.0,86,-99.99,,,0.00,Acu-Link.com,2016-09-26 05:34:00,
2016-09-26 01:49:00,52.9,48.8,30.03,ESE,112,0.0,-999.0,86,-99.99,,,0.00,Acu-Link.com,2016-09-26 05:49:00,
2016-09-26 02:04:00,52.5,48.7,30.03,ESE,112,0.0,-999.0,87,-99.99,,,0.00,Acu-Link.com,2016-09-26 06:04:00,
2016-09-26 02:19:00,52.3,48.5,30.03,ESE,112,0.0,-999.0,87,-99.99,,,0.00,Acu-Link.com,2016-09-26 06:19:00,
2016-09-26 02:34:00,52.0,48.3,30.03,ESE,112,0.0,-999.0,87,-99.99,,,0.00,Acu-Link.com,2016-09-26 06:34:00,
2016-09-26 02:49:00,51.8,48.1,30.02,ESE,112,0.0,-999.0,87,-99.99,,,0.00,Acu-Link.com,2016-09-26 06:49:00,
2016-09-26 03:04:00,51.6,47.6,30.01,ESE,112,0.0,-999.0,86,-99.99,,,0.00,Acu-Link.com,2016-09-26 07:04:00,
2016-09-26 03:20:00,51.6,47.9,30.01,ESE,112,0.0,-999.0,87,-99.99,,,0.00,Acu-Link.com,2016-09-26 07:20:00,
2016-09-26 03:35:00,51.3,47.6,30.01,ESE,112,0.0,-999.0,87,-99.99,,,0.00,Acu-Link.com,2016-09-26 07:35:00,
2016-09-26 03:50:00,51.1,47.7,30.01,ESE,112,0.0,-999.0,88,-99.99,,,0.00,Acu-Link.com,2016-09-26 07:50:00,
2016-09-26 04:05:00,50.7,47.3,30.00,ESE,112,0.0,-999.0,88,-99.99,,,0.00,Acu-Link.com,2016-09-26 08:05:00,
2016-09-26 04:20:00,50.5,47.1,30.01,ESE,112,0.0,-999.0,88,-99.99,,,0.00,Acu-Link.com,2016-09-26 08:20:00,
2016-09-26 04:35:00,50.5,47.1,30.01,ESE,112,0.0,-999.0,88,-99.99,,,0.00,Acu-Link.com,2016-09-26 08:35:00,
2016-09-26 04:50:00,50.5,47.1,30.01,ESE,112,0.0,-999.0,88,-99.99,,,0.00,Acu-Link.com,2016-09-26 08:50:00,
2016-09-26 05:05:00,50.7,47.3,30.01,ESE,112,0.0,-999.0,88,-99.99,,,0.00,Acu-Link.com,2016-09-26 09:05:00,
2016-09-26 05:20:00,50.5,47.1,30.01,ESE,112,0.0,-999.0,88,-99.99,,,0.00,Acu-Link.com,2016-09-26 09:20:00,
2016-09-26 05:36:00,50.4,47.0,30.01,ESE,112,0.0,-999.0,88,-99.99,,,0.00,Acu-Link.com,2016-09-26 09:36:00,
2016-09-26 06:06:00,50.9,47.8,30.01,ESE,112,0.0,-999.0,89,-99.99,,,0.00,Acu-Link.com,2016-09-26 10:06:00,
2016-09-26 06:21:00,50.7,47.6,30.01,ESE,112,0.0,-999.0,89,-99.99,,,0.00,Acu-Link.com,2016-09-26 10:21:00,
2016-09-26 06:36:00,51.1,48.0,30.01,ESE,112,0.0,-999.0,89,-99.99,,,0.00,Acu-Link.com,2016-09-26 10:36:00,
2016-09-26 06:51:00,51.6,48.5,30.01,ESE,112,0.0,-999.0,89,-99.99,,,0.00,Acu-Link.com,2016-09-26 10:51:00,
2016-09-26 07:06:00,52.3,48.9,30.01,ESE,112,0.0,-999.0,88,-99.99,,,0.00,Acu-Link.com,2016-09-26 11:06:00,
2016-09-26 07:21:00,52.5,48.7,30.02,ESE,112,0.0,-999.0,87,-99.99,,,0.00,Acu-Link.com,2016-09-26 11:21:00,
2016-09-26 07:36:00,52.7,48.9,30.02,ESE,112,0.0,-999.0,87,-99.99,,,0.00,Acu-Link.com,2016-09-26 11:36:00,
2016-09-26 07:52:00,52.7,48.9,30.02,ESE,112,0.0,-999.0,87,-99.99,,,0.00,Acu-Link.com,2016-09-26 11:52:00,
2016-09-26 08:07:00,53.6,49.8,30.02,ESE,112,0.0,-999.0,87,-99.99,,,0.00,Acu-Link.com,2016-09-26 12:07:00,
2016-09-26 08:22:00,54.5,50.7,30.01,ESE,112,0.0,-999.0,87,-99.99,,,0.00,Acu-Link.com,2016-09-26 12:22:00,
2016-09-26 08:37:00,55.8,52.0,30.01,ESE,112,0.0,-999.0,87,-99.99,,,0.00,Acu-Link.com,2016-09-26 12:37:00,